• Join FlightAware (Why Join?)
  • Login
  • US Flag 
06:34PM EDT


 

Airport Tracker/Info


-or-


 

Live Flight TrackerFlight Track Log ✈ RPA3143 ✈ 19-Jul-2013 ✈ KPIT - KDCA

Flight Track Log - Related Links

Times and Time Zones

All times are in EDT time to prevent confusion due to time zone crossing. See the RPA3143 flight status page for this flight to view local times or setup timezone preferences in your user account.

Time Position Orientation Groundspeed Altitude Reporting Facility
EDT Latitude Longitude Course Direction KTS MPH feet Rate Location/Type
05:59AM 40.3463 -79.9365 164° South  Level Estimated
06:00AM 40.2659 -79.9880 206° Southwest  Level FlightAware Approximate
06:00AM 40.3397 -80.2617 214° Southwest 303 349 11,000  Level Cleveland Center
06:01AM 40.2199 -79.8875 162° South  Level Estimated
06:01AM 40.2647 -80.2211 158° South 303 349 13,400  Level Cleveland Center
06:02AM 40.1739 -79.7872 166° South  Level Estimated
06:02AM 40.1728 -80.1728 158° South 327 376 16,400  Level Cleveland Center
06:03AM 40.1277 -79.6870 161° South  Level Estimated
06:03AM 40.0789 -80.1244 158° South 350 403 19,200  Level Cleveland Center
06:04AM 40.0814 -79.5869 166° South  Level Estimated
06:04AM 39.9806 -80.0764 159° South 364 419 21,600  Level Cleveland Center
06:05AM 40.0070 -79.6516 214° Southwest  Level FlightAware Approximate
06:06AM 39.7308 -79.9492 159° South 411 473 24,000  Level Washington Center
06:07AM 39.6264 -79.8969 159° South 411 473 24,000  Level Washington Center
06:08AM 39.5175 -79.8556 164° South 406 467 24,000  Level Washington Center
06:09AM 39.4075 -79.8383 173° South 401 461 24,000  Level Washington Center
06:10AM 39.3122 -79.7603 148° Southeast 401 461 24,000 -240 Level Washington Center
06:11AM 39.2814 -79.6244 106° East 359 413 23,600 -780 Descending Washington Center
06:12AM 39.2697 -79.4736 96° East 375 432 22,500 -1,140 Descending Washington Center
06:13AM 39.2575 -79.3308 96° East 385 443 21,400 -780 Descending Washington Center
06:14AM 39.2414 -79.1800 98° East 390 449 21,000 -240 Descending Washington Center
06:15AM 39.2286 -79.0481 97° East 384 442 21,000  Level Washington Center
06:16AM 39.2175 -78.9217 96° East 367 422 21,000  Level Washington Center
06:17AM 39.2064 -78.7925 96° East 361 415 21,000  Level Washington Center
06:18AM 39.1931 -78.6633 98° East 361 415 21,000 -960 Level Washington Center
06:19AM 39.1800 -78.5236 97° East 373 429 19,100 -1,980 Descending Washington Center
06:20AM 39.1644 -78.3892 98° East 378 435 17,100 -1,080 Descending Washington Center
06:21AM 39.1400 -78.2731 105° East 358 412 17,000 -60 Descending Washington Center
06:22AM 39.1133 -78.1597 107° East 340 391 17,000 -420 Level Washington Center
06:23AM 39.0822 -78.0464 109° East 334 384 16,200 -1,260 Descending Washington Center
06:24AM 39.0553 -77.9386 108° East 327 376 14,500 -1,740 Descending Washington Center
06:25AM 39.0006 -77.8592 132° Southeast 295 339 12,800 -1,620 Descending Washington Center
06:26AM 38.9603 -77.7806 123° Southeast 295 339 11,300 -1,920 Descending Washington Center
06:27AM 38.9519 -77.6631 95° East 285 328 9,100 -1,980 Descending Washington Center
06:28AM 38.9500 -77.5833 92° East 298 343 8,000 -660 Descending Potomac TRACON
06:29AM 38.9667 -77.5000 76° East 263 303 8,000 -720 Level Potomac TRACON
06:30AM 38.9833 -77.4167 76° East 247 284 6,700 -1,080 Descending Potomac TRACON
06:31AM 39.0000 -77.3333 76° East 213 245 6,000 -1,200 Descending Potomac TRACON
06:32AM 39.0167 -77.2667 72° East 198 228 4,400 -1,500 Descending Potomac TRACON
06:33AM 38.9833 -77.2167 131° Southeast 187 215 3,000 -1,440 Descending Potomac TRACON